Terminal Aerodrome Forecast
Issued by NWS Wakefield, VA

Home | Current Version | Previous Version | Text Only | Print | Product List | Glossary On
Versions: 1 2 3 4 5 6 7 8 9 10 11 12 13 14 15
000
FTUS41 KAKQ 252330
TAFECG
TAF
KECG 252330Z 2600/2624 16006KT P6SM SCT150
     FM260700 20006KT P6SM SKC
     FM261400 22005KT P6SM FEW050
     FM261700 19006KT P6SM SCT250
     FM262100 15007KT P6SM SKC=

USA.gov is the U.S. government's official web portal to all federal, state and local government web resources and services.